createdAt,value
2019-03-21T00:02:24.228Z,196.17
2019-03-21T00:04:51.759Z,191.00
2019-03-21T00:07:19.139Z,192.50
2019-03-21T00:09:48.238Z,195.50
2019-03-21T00:12:15.644Z,192.63
2019-03-21T00:14:51.719Z,192.97
2019-03-21T00:17:23.830Z,189.93
2019-03-21T00:19:51.593Z,195.97
2019-03-21T00:22:19.138Z,192.27
2019-03-21T00:24:46.517Z,197.63
2019-03-21T00:27:13.942Z,202.30
2019-03-21T00:29:43.430Z,198.87
2019-03-21T00:32:10.757Z,201.33
2019-03-21T00:34:38.109Z,197.97
2019-03-21T00:37:07.766Z,188.17
2019-03-21T00:39:37.307Z,168.77
2019-03-21T00:42:07.143Z,168.80
2019-03-21T00:44:34.575Z,160.33
2019-03-21T00:47:02.367Z,155.57
2019-03-21T00:49:31.360Z,156.17
2019-03-21T00:51:58.832Z,148.33
2019-03-21T00:54:27.040Z,146.63
2019-03-21T00:56:56.060Z,147.93
2019-03-21T00:59:23.448Z,138.63
2019-03-21T01:01:52.289Z,138.30
2019-03-21T01:04:20.350Z,138.07
2019-03-21T01:06:47.790Z,128.33
2019-03-21T01:09:16.083Z,126.90
2019-03-21T01:11:43.418Z,124.90
2019-03-21T01:14:10.770Z,122.03
2019-03-21T01:16:38.254Z,118.37
2019-03-21T01:19:05.620Z,117.57
2019-03-21T01:21:32.942Z,115.00
2019-03-21T01:24:00.326Z,117.27
2019-03-21T01:26:27.637Z,111.73
2019-03-21T01:28:55.083Z,112.70
2019-03-21T01:31:22.526Z,105.37
2019-03-21T01:33:50.028Z,110.50
2019-03-21T01:36:18.242Z,102.63
2019-03-21T01:38:45.616Z,104.60
2019-03-21T01:41:14.735Z,102.43
2019-03-21T01:43:42.147Z,100.93
2019-03-21T01:46:11.198Z,100.03
2019-03-21T01:48:38.642Z,93.83
2019-03-21T01:51:05.962Z,101.33
2019-03-21T01:53:33.362Z,95.97
2019-03-21T01:56:00.785Z,87.77
2019-03-21T01:58:28.277Z,87.87
2019-03-21T02:00:56.393Z,89.73
2019-03-21T02:03:23.812Z,94.93
2019-03-21T02:05:51.131Z,91.50
2019-03-21T02:08:18.513Z,91.40
2019-03-21T02:10:45.914Z,88.83
2019-03-21T02:13:13.308Z,87.10
2019-03-21T02:15:40.825Z,82.87
2019-03-21T02:18:08.322Z,81.50
2019-03-21T02:20:35.732Z,78.23
2019-03-21T02:23:03.153Z,79.07
2019-03-21T02:25:38.432Z,73.03
2019-03-21T02:28:05.752Z,67.57
2019-03-21T02:30:37.740Z,69.00
2019-03-21T02:33:06.709Z,62.37
2019-03-21T02:35:34.148Z,62.13
2019-03-21T02:38:01.512Z,60.73
2019-03-21T02:40:28.822Z,57.50
2019-03-21T02:42:57.624Z,60.23
2019-03-21T02:45:25.028Z,58.13
2019-03-21T02:47:52.372Z,58.30
2019-03-21T02:50:21.567Z,59.70
2019-03-21T02:52:49.001Z,60.47
2019-03-21T02:55:16.323Z,60.30
2019-03-21T02:57:43.751Z,57.00
2019-03-21T03:00:12.759Z,62.80
2019-03-21T03:02:40.135Z,61.90
2019-03-21T03:05:09.126Z,57.73
2019-03-21T03:07:36.545Z,56.67
2019-03-21T03:10:07.434Z,60.13
2019-03-21T03:12:34.530Z,56.70
2019-03-21T03:15:01.979Z,57.63
2019-03-21T03:17:29.322Z,59.17
2019-03-21T03:19:56.778Z,58.47
2019-03-21T03:22:24.099Z,56.90
2019-03-21T03:24:51.434Z,58.37
2019-03-21T03:27:18.804Z,58.37
2019-03-21T03:29:46.231Z,54.67
2019-03-21T03:32:13.605Z,53.40
2019-03-21T03:34:40.972Z,50.93
2019-03-21T03:37:08.336Z,51.73
2019-03-21T03:39:37.326Z,49.23
2019-03-21T03:42:04.781Z,48.67
2019-03-21T03:44:32.205Z,55.37
2019-03-21T03:46:59.700Z,50.73
2019-03-21T03:49:27.016Z,52.63
2019-03-21T03:51:54.449Z,54.13
2019-03-21T03:54:21.803Z,53.13
2019-03-21T03:56:49.174Z,53.90
2019-03-21T03:59:16.617Z,56.53
2019-03-21T04:01:44.137Z,59.27
2019-03-21T04:04:11.592Z,54.33
2019-03-21T04:06:38.944Z,50.33
2019-03-21T04:09:07.069Z,52.97
2019-03-21T04:11:34.413Z,55.00
2019-03-21T04:14:01.928Z,54.40
2019-03-21T04:16:29.263Z,52.07
2019-03-21T04:18:56.740Z,54.90
2019-03-21T04:21:24.139Z,54.77
2019-03-21T04:23:51.469Z,55.37
2019-03-21T04:26:26.442Z,55.20
2019-03-21T04:28:53.769Z,56.57
2019-03-21T04:31:21.246Z,53.97
2019-03-21T04:33:49.916Z,55.00
2019-03-21T04:36:17.355Z,57.30
2019-03-21T04:38:44.747Z,55.07
2019-03-21T04:41:12.119Z,55.07
2019-03-21T04:43:39.430Z,55.53
2019-03-21T04:46:06.846Z,53.73
2019-03-21T04:48:34.267Z,55.70
2019-03-21T04:51:01.692Z,57.67
2019-03-21T04:53:29.020Z,58.10
2019-03-21T04:55:56.449Z,58.53
2019-03-21T04:58:23.857Z,58.00
2019-03-21T05:00:55.489Z,57.10
2019-03-21T05:03:32.455Z,57.47
2019-03-21T05:05:59.801Z,54.33
2019-03-21T05:08:27.232Z,53.67
2019-03-21T05:10:54.901Z,53.27
2019-03-21T05:13:22.349Z,51.70
2019-03-21T05:15:50.377Z,51.20
2019-03-21T05:18:28.258Z,53.90
2019-03-21T05:20:55.686Z,57.80
2019-03-21T05:23:23.151Z,56.00
2019-03-21T05:25:50.531Z,56.47
2019-03-21T05:28:17.945Z,53.50
2019-03-21T05:30:46.964Z,56.80
2019-03-21T05:33:14.370Z,55.70
2019-03-21T05:35:41.707Z,55.20
2019-03-21T05:38:09.576Z,54.07
2019-03-21T05:40:37.000Z,52.07
2019-03-21T05:43:12.138Z,57.30
2019-03-21T05:45:39.647Z,55.67
2019-03-21T05:48:12.788Z,67.85
2019-03-21T05:50:40.140Z,61.00
2019-03-21T05:53:07.743Z,58.83
2019-03-21T05:55:35.078Z,67.82
2019-03-21T05:58:02.458Z,70.00
2019-03-21T06:00:36.305Z,69.58
2019-03-21T06:03:05.999Z,76.05
2019-03-21T06:05:33.386Z,78.90
2019-03-21T06:08:05.098Z,74.77
2019-03-21T06:10:32.585Z,61.00
2019-03-21T06:12:59.981Z,54.63
2019-03-21T06:15:29.106Z,50.23
2019-03-21T06:18:16.220Z,47.50
2019-03-21T06:20:45.240Z,45.77
2019-03-21T06:23:14.290Z,46.03
2019-03-21T06:25:47.501Z,44.93
2019-03-21T06:28:14.982Z,46.73
2019-03-21T06:30:42.315Z,45.40
2019-03-21T06:33:09.804Z,46.47
2019-03-21T06:35:37.128Z,46.40
2019-03-21T06:38:04.557Z,49.60
2019-03-21T06:40:31.896Z,47.00
2019-03-21T06:42:59.318Z,45.87
2019-03-21T06:45:26.641Z,43.43
2019-03-21T06:47:53.988Z,42.23
2019-03-21T06:50:21.345Z,38.43
2019-03-21T06:52:48.712Z,37.83
2019-03-21T06:55:16.192Z,36.37
2019-03-21T06:57:43.610Z,34.03
2019-03-21T07:00:11.144Z,33.70
2019-03-21T07:02:38.483Z,31.70
2019-03-21T07:05:06.189Z,33.70
2019-03-21T07:07:33.650Z,33.33
2019-03-21T07:10:00.982Z,34.23
2019-03-21T07:12:28.409Z,36.17
2019-03-21T07:14:55.708Z,34.87
2019-03-21T07:17:23.205Z,36.53
2019-03-21T07:19:50.708Z,32.83
2019-03-21T07:22:18.113Z,34.13
2019-03-21T07:24:45.522Z,33.87
2019-03-21T07:27:12.923Z,33.83
2019-03-21T07:29:42.019Z,37.00
2019-03-21T07:32:09.521Z,36.57
2019-03-21T07:34:36.942Z,37.20
2019-03-21T07:37:04.319Z,38.23
2019-03-21T07:39:31.765Z,38.33
2019-03-21T07:42:01.128Z,38.30
2019-03-21T07:44:28.203Z,37.00
2019-03-21T07:46:55.925Z,36.37
2019-03-21T07:49:23.322Z,35.13
2019-03-21T07:51:50.750Z,34.63
2019-03-21T07:54:18.543Z,32.53
2019-03-21T07:56:45.893Z,31.80
2019-03-21T07:59:13.347Z,32.57
2019-03-21T08:01:40.750Z,34.90
2019-03-21T08:04:08.121Z,37.13
2019-03-21T08:06:35.455Z,40.93
2019-03-21T08:09:02.810Z,42.77
2019-03-21T08:11:30.235Z,43.67
2019-03-21T08:13:57.598Z,41.23
2019-03-21T08:16:25.708Z,43.70
2019-03-21T08:18:53.291Z,46.87
2019-03-21T08:21:20.777Z,48.33
2019-03-21T08:23:48.275Z,47.67
2019-03-21T08:26:15.698Z,46.03
2019-03-21T08:28:43.043Z,44.70
2019-03-21T08:31:12.067Z,46.83
2019-03-21T08:33:39.394Z,46.87
2019-03-21T08:36:07.707Z,46.83
2019-03-21T08:38:36.233Z,44.37
2019-03-21T08:41:03.709Z,42.77
2019-03-21T08:43:31.019Z,44.20
2019-03-21T08:45:58.459Z,43.23
2019-03-21T08:48:25.753Z,41.67
2019-03-21T08:50:53.243Z,39.90
2019-03-21T08:53:23.927Z,37.27
2019-03-21T08:56:02.835Z,35.77
2019-03-21T08:58:31.721Z,37.20
2019-03-21T09:01:02.455Z,36.80
2019-03-21T09:03:34.665Z,36.57
2019-03-21T09:06:02.076Z,37.00
2019-03-21T09:08:34.191Z,39.10
2019-03-21T09:11:02.155Z,40.90
2019-03-21T09:13:29.590Z,41.03
2019-03-21T09:15:57.064Z,40.67
2019-03-21T09:18:25.043Z,41.43
2019-03-21T09:20:52.410Z,40.83
2019-03-21T09:23:20.189Z,40.53
2019-03-21T09:25:51.222Z,41.47
2019-03-21T09:28:17.809Z,39.97
2019-03-21T09:30:45.209Z,39.97
2019-03-21T09:33:12.622Z,37.00
2019-03-21T09:35:40.040Z,36.50
2019-03-21T09:38:09.016Z,36.73
2019-03-21T09:40:36.354Z,37.30
2019-03-21T09:43:03.839Z,36.43
2019-03-21T09:45:32.799Z,37.07
2019-03-21T09:48:00.203Z,39.83
2019-03-21T09:50:29.190Z,37.67
2019-03-21T09:52:58.267Z,36.77
2019-03-21T09:55:26.969Z,35.47
2019-03-21T09:57:54.531Z,31.07
2019-03-21T10:00:29.055Z,22.73
2019-03-21T10:02:56.495Z,21.70
2019-03-21T10:05:24.046Z,21.17
2019-03-21T10:07:51.602Z,21.27
2019-03-21T10:10:20.655Z,21.47
2019-03-21T10:12:48.082Z,21.53
2019-03-21T10:15:15.409Z,20.80
2019-03-21T10:17:42.848Z,21.30
2019-03-21T10:20:10.221Z,22.90
2019-03-21T10:22:37.707Z,22.17
2019-03-21T10:25:05.938Z,22.67
2019-03-21T10:27:33.444Z,20.53
2019-03-21T10:30:00.845Z,21.03
2019-03-21T10:32:28.479Z,18.10
2019-03-21T10:34:55.931Z,18.57
2019-03-21T10:37:23.460Z,18.33
2019-03-21T10:39:50.913Z,17.30
2019-03-21T10:42:18.417Z,19.07
2019-03-21T10:44:45.869Z,19.03
2019-03-21T10:47:13.367Z,18.80
2019-03-21T10:49:40.776Z,18.43
2019-03-21T10:52:08.574Z,20.87
2019-03-21T10:54:36.009Z,25.17
2019-03-21T10:57:03.418Z,24.30
2019-03-21T10:59:30.790Z,24.23
2019-03-21T11:02:06.907Z,24.03
2019-03-21T11:04:27.470Z,24.83
2019-03-21T11:07:00.762Z,25.80
2019-03-21T11:09:29.107Z,26.13
2019-03-21T11:11:57.129Z,23.07
2019-03-21T11:14:26.208Z,26.50
2019-03-21T11:16:56.858Z,26.90
2019-03-21T11:19:24.466Z,26.57
2019-03-21T11:21:51.879Z,25.97
2019-03-21T11:24:19.471Z,26.77
2019-03-21T11:26:48.123Z,27.60
2019-03-21T11:29:15.750Z,28.17
2019-03-21T11:31:44.886Z,28.73
2019-03-21T11:34:14.523Z,29.33
2019-03-21T11:36:42.729Z,29.00
2019-03-21T11:39:10.359Z,29.67
2019-03-21T11:41:37.941Z,30.50
2019-03-21T11:44:05.540Z,30.27
2019-03-21T11:46:33.844Z,29.73
2019-03-21T11:49:01.474Z,29.57
2019-03-21T11:51:29.928Z,29.90
2019-03-21T11:53:57.588Z,29.17
2019-03-21T11:56:25.175Z,29.13
2019-03-21T11:58:53.638Z,27.93
2019-03-21T12:01:22.770Z,32.03
2019-03-21T12:03:50.705Z,31.90
2019-03-21T12:06:19.753Z,31.00
2019-03-21T12:08:47.298Z,29.97
2019-03-21T12:11:14.666Z,29.17
2019-03-21T12:13:42.095Z,27.20
2019-03-21T12:16:09.897Z,28.80
2019-03-21T12:18:37.281Z,27.57
2019-03-21T12:21:07.912Z,25.70
2019-03-21T12:23:35.398Z,28.07
2019-03-21T12:26:02.868Z,26.13
2019-03-21T12:28:30.304Z,27.17
2019-03-21T12:30:57.677Z,27.13
2019-03-21T12:33:25.016Z,27.10
2019-03-21T12:35:52.382Z,25.70
2019-03-21T12:38:19.749Z,25.10
2019-03-21T12:40:47.647Z,23.90
2019-03-21T12:43:15.055Z,23.53
2019-03-21T12:45:42.445Z,23.50
2019-03-21T12:48:09.757Z,24.53
2019-03-21T12:50:37.099Z,24.13
2019-03-21T12:53:04.655Z,24.37
2019-03-21T12:55:32.082Z,26.73
2019-03-21T12:57:59.690Z,24.60
2019-03-21T13:00:31.310Z,26.07
2019-03-21T13:02:58.713Z,24.27
2019-03-21T13:05:31.851Z,23.07
2019-03-21T13:07:59.299Z,22.70
2019-03-21T13:10:26.712Z,23.60
2019-03-21T13:12:54.135Z,22.90
2019-03-21T13:15:29.803Z,24.17
2019-03-21T13:17:51.203Z,24.50
2019-03-21T13:20:18.573Z,24.07
2019-03-21T13:22:52.847Z,24.80
2019-03-21T13:25:14.964Z,25.77
2019-03-21T13:27:42.392Z,25.83
2019-03-21T13:30:11.309Z,23.10
2019-03-21T13:32:39.073Z,24.73
2019-03-21T13:35:06.564Z,22.93
2019-03-21T13:37:34.043Z,23.20
2019-03-21T13:40:01.456Z,22.20
2019-03-21T13:42:28.825Z,21.57
2019-03-21T13:44:56.248Z,22.57
2019-03-21T13:47:23.959Z,22.50
2019-03-21T13:49:51.502Z,21.40
2019-03-21T13:52:19.087Z,20.53
2019-03-21T13:54:47.589Z,20.57
2019-03-21T13:57:16.178Z,19.33
2019-03-21T13:59:44.861Z,18.77
2019-03-21T14:02:12.251Z,20.77
2019-03-21T14:04:42.563Z,20.07
2019-03-21T14:07:11.591Z,19.57
2019-03-21T14:09:39.030Z,20.70
2019-03-21T14:12:09.168Z,20.87
2019-03-21T14:14:36.563Z,20.83
2019-03-21T14:17:03.992Z,19.07
2019-03-21T14:19:31.423Z,20.77
2019-03-21T14:21:58.964Z,18.77
2019-03-21T14:24:26.433Z,19.43
2019-03-21T14:26:53.917Z,20.30
2019-03-21T14:29:21.363Z,21.50
2019-03-21T14:31:48.801Z,21.57
2019-03-21T14:34:17.782Z,22.37
2019-03-21T14:36:45.193Z,23.50
2019-03-21T14:39:12.582Z,29.97
2019-03-21T14:41:39.885Z,26.07
2019-03-21T14:44:08.056Z,20.43
2019-03-21T14:46:35.553Z,20.33
2019-03-21T14:49:02.886Z,20.97
2019-03-21T14:51:31.867Z,20.63
2019-03-21T14:53:59.349Z,18.30
2019-03-21T14:56:26.808Z,19.53
2019-03-21T14:58:54.159Z,18.13
2019-03-21T15:01:21.500Z,18.67
2019-03-21T15:03:48.885Z,19.97
2019-03-21T15:06:16.296Z,16.80
2019-03-21T15:08:43.923Z,18.50
2019-03-21T15:11:17.227Z,17.60
2019-03-21T15:14:04.896Z,20.07
2019-03-21T15:16:33.175Z,20.73
2019-03-21T15:19:00.566Z,18.00
2019-03-21T15:21:28.131Z,20.03
2019-03-21T15:23:59.603Z,19.17
2019-03-21T15:26:24.712Z,20.10
2019-03-21T15:28:52.188Z,19.73
2019-03-21T15:31:19.748Z,20.03
2019-03-21T15:33:47.478Z,20.10
2019-03-21T15:36:14.909Z,18.90
2019-03-21T15:38:42.412Z,22.53
2019-03-21T15:41:09.855Z,21.60
2019-03-21T15:43:37.190Z,20.70
2019-03-21T15:46:04.982Z,21.27
2019-03-21T15:48:32.312Z,20.23
2019-03-21T15:51:04.884Z,20.77
2019-03-21T15:53:28.888Z,21.33
2019-03-21T15:55:56.290Z,19.70
2019-03-21T15:58:23.742Z,20.60
2019-03-21T16:00:58.388Z,20.73
2019-03-21T16:03:25.794Z,20.50
2019-03-21T16:05:53.248Z,20.00
2019-03-21T16:08:20.810Z,21.50
2019-03-21T16:10:48.300Z,20.67
2019-03-21T16:13:17.482Z,20.73
2019-03-21T16:15:45.012Z,21.23
2019-03-21T16:18:15.367Z,22.37
2019-03-21T16:20:42.768Z,22.50
2019-03-21T16:23:12.780Z,21.10
2019-03-21T16:25:40.189Z,23.30
2019-03-21T16:28:09.173Z,23.07
2019-03-21T16:30:38.211Z,22.77
2019-03-21T16:33:05.688Z,24.83
2019-03-21T16:35:33.116Z,23.30
2019-03-21T16:38:00.549Z,23.33
2019-03-21T16:40:29.587Z,21.60
2019-03-21T16:42:56.932Z,22.43
2019-03-21T16:45:24.327Z,24.00
2019-03-21T16:47:51.982Z,25.87
2019-03-21T16:50:19.390Z,25.87
2019-03-21T16:52:46.737Z,25.20
2019-03-21T16:55:17.105Z,25.27
2019-03-21T16:57:44.549Z,27.83
2019-03-21T17:00:17.855Z,26.90
2019-03-21T17:02:45.697Z,27.53
2019-03-21T17:05:13.090Z,27.23
2019-03-21T17:07:40.428Z,28.10
2019-03-21T17:10:09.608Z,28.87
2019-03-21T17:12:37.055Z,31.13
2019-03-21T17:15:06.025Z,30.40
2019-03-21T17:17:33.418Z,29.73
2019-03-21T17:20:03.735Z,32.17
2019-03-21T17:22:31.655Z,34.67
2019-03-21T17:24:59.065Z,36.77
2019-03-21T17:27:26.493Z,36.37
2019-03-21T17:29:53.884Z,38.53
2019-03-21T17:32:21.398Z,36.53
2019-03-21T17:34:48.955Z,35.60
2019-03-21T17:37:16.325Z,66.27
2019-03-21T17:39:43.780Z,80.23
2019-03-21T17:42:11.251Z,78.50
2019-03-21T17:44:38.725Z,81.27
2019-03-21T17:47:06.147Z,92.03
2019-03-21T17:49:33.613Z,95.33
2019-03-21T17:52:02.075Z,94.63
2019-03-21T17:54:41.000Z,92.47
2019-03-21T17:56:59.249Z,101.80
2019-03-21T17:59:26.642Z,107.47
2019-03-21T18:01:53.998Z,98.43
2019-03-21T18:04:21.455Z,85.93
2019-03-21T18:06:48.807Z,86.53
2019-03-21T18:09:18.923Z,86.97
2019-03-21T18:11:46.575Z,96.07
2019-03-21T18:14:13.999Z,109.80
2019-03-21T18:16:41.394Z,116.70
2019-03-21T18:19:08.887Z,130.67
2019-03-21T18:21:36.213Z,145.13
2019-03-21T18:24:05.242Z,141.93
2019-03-21T18:26:32.623Z,151.60
2019-03-21T18:29:00.103Z,127.30
2019-03-21T18:31:27.457Z,133.93
2019-03-21T18:33:55.023Z,108.03
2019-03-21T18:36:22.354Z,139.60
2019-03-21T18:38:57.636Z,155.20
2019-03-21T18:41:19.013Z,159.83
2019-03-21T18:43:46.443Z,167.87
2019-03-21T18:46:13.836Z,167.90
2019-03-21T18:48:41.296Z,168.30
2019-03-21T18:51:08.815Z,157.33
2019-03-21T18:53:36.193Z,164.97
2019-03-21T18:56:03.731Z,165.60
2019-03-21T18:58:31.243Z,165.53
2019-03-21T19:00:58.649Z,173.73
2019-03-21T19:03:26.167Z,180.20
2019-03-21T19:05:53.490Z,225.07
2019-03-21T19:08:20.921Z,213.93
2019-03-21T19:10:48.353Z,205.10
2019-03-21T19:13:15.817Z,219.07
2019-03-21T19:15:43.294Z,217.00
2019-03-21T19:18:10.811Z,210.17
2019-03-21T19:20:38.234Z,248.80
2019-03-21T19:23:05.650Z,270.00
2019-03-21T19:25:32.993Z,265.47
2019-03-21T19:28:00.383Z,215.43
2019-03-21T19:30:27.737Z,355.17
2019-03-21T19:32:55.170Z,325.27
2019-03-21T19:35:23.141Z,393.03
2019-03-21T19:37:50.814Z,288.77
2019-03-21T19:40:18.770Z,266.60
2019-03-21T19:42:47.745Z,254.37
2019-03-21T19:45:15.694Z,226.70
2019-03-21T19:47:44.509Z,196.30
2019-03-21T19:50:15.356Z,183.33
2019-03-21T19:52:42.858Z,176.43
2019-03-21T19:55:16.650Z,166.00
2019-03-21T19:57:45.818Z,148.53
2019-03-21T20:00:15.640Z,138.70
2019-03-21T20:02:43.511Z,139.70
2019-03-21T20:05:24.823Z,144.90
2019-03-21T20:07:52.246Z,150.37
2019-03-21T20:10:23.013Z,136.93
2019-03-21T20:12:50.443Z,172.83
2019-03-21T20:15:17.940Z,165.03
2019-03-21T20:17:45.332Z,186.57
2019-03-21T20:20:13.987Z,218.80
2019-03-21T20:22:42.997Z,206.73
2019-03-21T20:25:12.093Z,172.97
2019-03-21T20:27:39.470Z,209.87
2019-03-21T20:30:10.096Z,187.00
2019-03-21T20:32:37.517Z,257.00
2019-03-21T20:35:08.304Z,191.50
2019-03-21T20:37:35.824Z,193.17
2019-03-21T20:40:08.739Z,224.63
2019-03-21T20:42:36.575Z,188.40
2019-03-21T20:45:04.608Z,254.33
2019-03-21T20:47:35.031Z,211.13
2019-03-21T20:50:02.180Z,183.47
2019-03-21T20:52:29.514Z,212.77
2019-03-21T20:54:58.564Z,201.37
2019-03-21T20:57:26.022Z,227.93
2019-03-21T20:59:56.482Z,234.87
2019-03-21T21:02:23.894Z,193.63
2019-03-21T21:04:52.886Z,177.10
2019-03-21T21:07:20.400Z,196.83
2019-03-21T21:09:47.714Z,194.90
2019-03-21T21:12:16.212Z,205.03
2019-03-21T21:14:45.308Z,191.67
2019-03-21T21:17:12.738Z,225.80
2019-03-21T21:19:40.220Z,226.60
2019-03-21T21:22:07.623Z,238.37
2019-03-21T21:24:35.037Z,233.53
2019-03-21T21:27:02.436Z,242.63
2019-03-21T21:29:29.767Z,260.00
2019-03-21T21:31:57.124Z,228.20
2019-03-21T21:34:27.492Z,208.00
2019-03-21T21:36:56.829Z,200.90
2019-03-21T21:39:24.320Z,189.93
2019-03-21T21:41:51.770Z,197.07
2019-03-21T21:44:19.148Z,200.87
2019-03-21T21:46:46.606Z,197.87
2019-03-21T21:49:14.525Z,197.33
2019-03-21T21:51:41.852Z,199.83
2019-03-21T21:54:09.236Z,199.73
2019-03-21T21:56:36.598Z,197.13
2019-03-21T21:59:03.931Z,195.90
2019-03-21T22:01:31.438Z,195.57
2019-03-21T22:04:04.866Z,202.10
2019-03-21T22:06:35.047Z,200.80
2019-03-21T22:09:02.399Z,208.50
2019-03-21T22:11:29.993Z,205.67
2019-03-21T22:13:57.493Z,206.57
2019-03-21T22:16:24.908Z,210.17
2019-03-21T22:18:52.304Z,217.00
2019-03-21T22:21:22.070Z,215.50
2019-03-21T22:23:49.488Z,216.47
2019-03-21T22:26:28.895Z,213.83
2019-03-21T22:28:46.254Z,216.70
2019-03-21T22:31:13.656Z,212.40
2019-03-21T22:33:41.413Z,218.67
2019-03-21T22:36:08.741Z,226.87
2019-03-21T22:38:36.148Z,233.37
2019-03-21T22:41:03.713Z,230.17
2019-03-21T22:43:31.110Z,242.93
2019-03-21T22:45:58.512Z,252.77
2019-03-21T22:48:26.844Z,254.87
2019-03-21T22:50:54.271Z,284.33
2019-03-21T22:53:21.796Z,301.67
2019-03-21T22:55:49.226Z,319.40
2019-03-21T22:58:16.640Z,326.40
2019-03-21T23:00:46.686Z,319.97
2019-03-21T23:03:14.172Z,307.60
2019-03-21T23:05:41.799Z,307.77
2019-03-21T23:08:09.311Z,303.93
2019-03-21T23:10:36.657Z,296.37
2019-03-21T23:13:04.082Z,297.90
2019-03-21T23:15:31.439Z,292.13
2019-03-21T23:17:58.913Z,282.53
2019-03-21T23:20:26.303Z,292.67
2019-03-21T23:22:54.372Z,294.10
2019-03-21T23:25:21.918Z,289.00
2019-03-21T23:27:49.361Z,313.40
2019-03-21T23:30:17.562Z,304.57
2019-03-21T23:32:44.916Z,295.53
2019-03-21T23:35:12.379Z,288.63
2019-03-21T23:37:39.760Z,282.80
2019-03-21T23:40:08.936Z,279.63
2019-03-21T23:42:36.395Z,280.53
2019-03-21T23:45:05.266Z,269.80
2019-03-21T23:47:32.712Z,269.53
2019-03-21T23:50:00.330Z,267.47
2019-03-21T23:52:27.714Z,266.73
2019-03-21T23:54:55.112Z,272.80
2019-03-21T23:57:22.604Z,254.13
2019-03-21T23:59:50.090Z,246.50
